ウィニペグ の空港の天気 - METARとTAF

ウィニペグ国際空港 ( CYWG / YWG ) - カナダ マニトバ州ウィニペグ
飛行場実況気象(Metar)
観測時間07/01 04:00 CDT (07/01 09:00 UTC)
風向・風速南西 1m/s
視程10km以上
天気現象
少しの雲 雲底高度 520m
気温11℃
湿度76%
気圧1012.7hPa
METARCYWG 010900Z 23002KT 15SM FEW017 11/07 A2989 RMK CU1 CU TR SLP127
過去の天気等 Google飛行場航空写真 Wunderground天気予報

過去48時間のMETAR

飛行場予報(TAF)
発表時間: 7/01 00:40 CDT (7/01 05:40 UTC)
予報対象時間: 1日1時 CDT ~ 2日1時 CDT
風向・風速不定 2m/s
視程10km以上
全天の4割程度の雲 雲底高度 2740m
1日3時 CDT ~ 1日5時 CDT に徐々に
風向・風速西 4m/s
1日11時 CDT ~ 1日13時 CDT に徐々に
風向・風速北西 8m/s
1日22時 CDT から
風向・風速北北西 5m/s
視程10km以上
なし
TAF CYWG 010540Z 0106/0206 VRB03KT P6SM SCT090
BECMG 0108/0110 28008KT
BECMG 0116/0118 32015KT
FM020300 33010KT P6SM SKC RMK NXT FCST BY 011200Z